Time;durP1;ratioP1;P1;durP2;ratioP2;P2;SDS_P1;SDS_P2;PMS_P1;PMS_P2;Temp;Humidity;BMP_temperature;BMP_pressure;BME280_temperature;BME280_humidity;BME280_pressure;Samples;Min_cycle;Max_cycle;Signal;HPM_P1;HPM_P2
2022/09/13 00:01:09;;;;;;;;;;;9.20;99.90;;;;;;5105807;27;19965;-57
2022/09/13 00:03:49;;;;;;;;;;;9.10;99.90;;;;;;5106212;27;20331;-54
2022/09/13 00:06:29;;;;;;;;;;;9.00;99.90;;;;;;5126745;27;19927;-54
2022/09/13 00:09:09;;;;;;;;;;;9.00;99.90;;;;;;5106185;27;19927;-54
2022/09/13 00:11:49;;;;;;;;;;;8.90;99.90;;;;;;5126879;27;19912;-54
2022/09/13 00:14:28;;;;;;;;;;;8.80;99.90;;;;;;5105899;27;19945;-54
2022/09/13 00:17:08;;;;;;;;;;;8.80;99.90;;;;;;5085767;28;20271;-54
2022/09/13 00:19:48;;;;;;;;;;;8.70;99.90;;;;;;5105833;27;20123;-54
2022/09/13 00:22:28;;;;;;;;;;;8.70;99.90;;;;;;5105079;27;19930;-55
2022/09/13 00:25:08;;;;;;;;;;;8.70;99.90;;;;;;5101219;27;19931;-54
2022/09/13 00:27:50;;;;;;;;;;;8.70;99.90;;;;;;5099753;27;19916;-54
2022/09/13 00:30:29;;;;;;;;;;;8.70;99.90;;;;;;5092756;27;19935;-54
2022/09/13 00:33:09;;;;;;;;;;;8.60;99.90;;;;;;5105034;27;19926;-54
2022/09/13 00:35:49;;;;;;;;;;;8.60;99.90;;;;;;5075424;28;19913;-54
2022/09/13 00:38:28;;;;;;;;;;;8.50;99.90;;;;;;5105137;27;19916;-54
2022/09/13 00:41:10;;;;;;;;;;;8.50;99.90;;;;;;5106252;27;20572;-54
2022/09/13 00:43:52;;;;;;;;;;;8.40;99.90;;;;;;5106255;27;20340;-54
2022/09/13 00:46:35;;;;;;;;;;;8.40;99.90;;;;;;5074686;28;19919;-54
2022/09/13 00:49:17;;;;;;;;;;;8.40;99.90;;;;;;5105788;27;20428;-56
2022/09/13 00:51:59;;;;;;;;;;;8.40;99.90;;;;;;5106222;27;20434;-54
2022/09/13 00:54:40;;;;;;;;;;;8.40;99.90;;;;;;5106243;27;19926;-54
2022/09/13 00:57:22;;;;;;;;;;;8.40;99.90;;;;;;5106074;27;19926;-56
2022/09/13 01:00:08;;;;;;;;;;;8.30;99.90;;;;;;5105999;27;19916;-54
2022/09/13 01:02:49;;;;;;;;;;;8.30;99.90;;;;;;5106236;27;19926;-54
2022/09/13 01:05:32;;;;;;;;;;;8.30;99.90;;;;;;5083236;28;20260;-54
2022/09/13 01:08:14;;;;;;;;;;;8.30;99.90;;;;;;5106546;27;19973;-54
2022/09/13 01:10:57;;;;;;;;;;;8.30;99.90;;;;;;5106589;27;19920;-55
2022/09/13 01:13:37;;;;;;;;;;;8.30;99.90;;;;;;5106448;27;19926;-54
2022/09/13 01:16:16;;;;;;;;;;;8.30;99.90;;;;;;5097043;27;19946;-54
2022/09/13 01:18:56;;;;;;;;;;;8.20;99.90;;;;;;5105751;27;19954;-54
2022/09/13 01:22:02;;;;;;;;;;;8.20;99.90;;;;;;5106077;27;20359;-54
2022/09/13 01:25:03;;;;;;;;;;;8.20;99.90;;;;;;5106085;27;19926;-54
2022/09/13 01:27:49;;;;;;;;;;;8.30;99.90;;;;;;5126545;27;19918;-54
2022/09/13 01:30:31;;;;;;;;;;;8.20;99.90;;;;;;5085665;28;19928;-56
2022/09/13 01:33:26;;;;;;;;;;;8.10;99.90;;;;;;5086361;28;20255;-55
2022/09/13 01:36:22;;;;;;;;;;;8.00;99.90;;;;;;5098753;27;19913;-54
2022/09/13 01:39:04;;;;;;;;;;;8.00;99.90;;;;;;5100849;27;19977;-54
2022/09/13 01:41:59;;;;;;;;;;;8.00;99.90;;;;;;5105434;27;19926;-54
2022/09/13 01:44:48;;;;;;;;;;;7.90;99.90;;;;;;5105813;27;19982;-54
2022/09/13 01:47:30;;;;;;;;;;;8.00;99.90;;;;;;5105940;27;19926;-54
2022/09/13 01:50:13;;;;;;;;;;;8.10;99.90;;;;;;5105644;27;19953;-56
2022/09/13 01:52:55;;;;;;;;;;;8.00;99.90;;;;;;5106181;27;19946;-54
2022/09/13 01:55:39;;;;;;;;;;;7.90;99.90;;;;;;5105916;27;19953;-54
2022/09/13 01:58:23;;;;;;;;;;;7.80;99.90;;;;;;5106228;27;19912;-54
2022/09/13 02:01:08;;;;;;;;;;;7.80;99.90;;;;;;5105992;27;20311;-54
2022/09/13 02:03:54;;;;;;;;;;;7.90;99.90;;;;;;5105944;27;19926;-54
2022/09/13 02:06:36;;;;;;;;;;;7.80;99.90;;;;;;5105981;27;20348;-55
2022/09/13 02:09:17;;;;;;;;;;;7.80;99.90;;;;;;5105908;27;20109;-54
2022/09/13 02:12:00;;;;;;;;;;;7.90;99.90;;;;;;5106045;27;20427;-56
2022/09/13 02:14:41;;;;;;;;;;;7.80;99.90;;;;;;5085634;28;20362;-54
2022/09/13 02:17:23;;;;;;;;;;;7.70;99.90;;;;;;5106470;27;19946;-54
2022/09/13 02:20:06;;;;;;;;;;;7.80;99.90;;;;;;5126504;27;19912;-54
2022/09/13 02:22:48;;;;;;;;;;;7.70;99.90;;;;;;5106148;27;19934;-54
2022/09/13 02:25:31;;;;;;;;;;;7.70;99.90;;;;;;5106219;27;20637;-54
2022/09/13 02:28:13;;;;;;;;;;;7.70;99.90;;;;;;5145109;22;19957;-57
2022/09/13 02:30:54;;;;;;;;;;;7.80;99.90;;;;;;5063914;28;19913;-57
2022/09/13 02:33:36;;;;;;;;;;;7.70;99.90;;;;;;5104881;27;19912;-57
2022/09/13 02:36:19;;;;;;;;;;;7.70;99.90;;;;;;5104872;27;19945;-58
2022/09/13 02:39:02;;;;;;;;;;;7.70;99.90;;;;;;5104365;27;19912;-57
2022/09/13 02:41:46;;;;;;;;;;;7.70;99.90;;;;;;5105145;27;19912;-57
2022/09/13 02:44:32;;;;;;;;;;;7.70;99.90;;;;;;5104988;27;19969;-57
2022/09/13 02:47:21;;;;;;;;;;;7.70;99.90;;;;;;5104632;27;19913;-57
2022/09/13 02:50:07;;;;;;;;;;;7.60;99.90;;;;;;5104366;27;19916;-57
2022/09/13 02:52:50;;;;;;;;;;;7.60;99.90;;;;;;5125181;27;19925;-57
2022/09/13 02:55:35;;;;;;;;;;;7.70;99.90;;;;;;5084251;28;19913;-56
2022/09/13 02:58:19;;;;;;;;;;;7.70;99.90;;;;;;5090137;27;19958;-56
2022/09/13 03:01:00;;;;;;;;;;;7.60;99.90;;;;;;5104426;27;19912;-57
2022/09/13 03:03:39;;;;;;;;;;;7.60;99.90;;;;;;5125637;27;20548;-57
2022/09/13 03:06:23;;;;;;;;;;;7.60;99.90;;;;;;5104792;27;19926;-57
2022/09/13 03:09:05;;;;;;;;;;;7.60;99.90;;;;;;5104210;27;19954;-57
2022/09/13 03:11:56;;;;;;;;;;;7.60;99.90;;;;;;5084480;28;19921;-57
2022/09/13 03:14:41;;;;;;;;;;;7.50;99.90;;;;;;5104658;27;20323;-57
2022/09/13 03:17:29;;;;;;;;;;;7.50;99.90;;;;;;5104483;27;19926;-57
2022/09/13 03:20:12;;;;;;;;;;;7.60;99.90;;;;;;5104718;27;19945;-57
2022/09/13 03:23:04;;;;;;;;;;;7.80;99.90;;;;;;5084805;28;20370;-57
2022/09/13 03:25:52;;;;;;;;;;;8.00;99.90;;;;;;5104887;27;19954;-57
2022/09/13 03:28:36;;;;;;;;;;;8.20;99.90;;;;;;5107923;27;19912;-57
2022/09/13 03:31:18;;;;;;;;;;;8.30;99.90;;;;;;5125468;27;19926;-57
2022/09/13 03:34:03;;;;;;;;;;;8.20;99.90;;;;;;5105383;27;19930;-57
2022/09/13 03:36:46;;;;;;;;;;;8.10;99.90;;;;;;5103007;27;19948;-57
2022/09/13 03:39:33;;;;;;;;;;;8.00;99.90;;;;;;5104481;27;19985;-57
2022/09/13 03:42:14;;;;;;;;;;;7.90;99.90;;;;;;5105025;27;19927;-56
2022/09/13 03:44:56;;;;;;;;;;;7.90;99.90;;;;;;5104948;27;19926;-57
2022/09/13 03:47:38;;;;;;;;;;;7.90;99.90;;;;;;5094837;27;19962;-58
2022/09/13 03:50:19;;;;;;;;;;;7.80;99.90;;;;;;5082677;28;19913;-57
2022/09/13 03:53:01;;;;;;;;;;;7.80;99.90;;;;;;5105460;27;20311;-57
2022/09/13 03:55:42;;;;;;;;;;;7.80;99.90;;;;;;5104844;27;19953;-57
2022/09/13 03:58:22;;;;;;;;;;;7.90;99.90;;;;;;5088817;27;20394;-56
2022/09/13 04:01:02;;;;;;;;;;;7.90;99.90;;;;;;5124196;27;19922;-57
2022/09/13 04:03:42;;;;;;;;;;;7.80;99.90;;;;;;5094317;27;19924;-57
2022/09/13 04:06:22;;;;;;;;;;;7.70;99.90;;;;;;5083971;27;19958;-57
2022/09/13 04:09:02;;;;;;;;;;;7.60;99.90;;;;;;5104287;27;19973;-56
2022/09/13 04:11:41;;;;;;;;;;;7.50;99.90;;;;;;5105038;27;19912;-57
2022/09/13 04:14:21;;;;;;;;;;;7.50;99.90;;;;;;5125831;27;20182;-56
2022/09/13 04:17:01;;;;;;;;;;;7.50;99.90;;;;;;5120666;27;19917;-57
2022/09/13 04:19:43;;;;;;;;;;;7.40;99.90;;;;;;5124874;27;19926;-57
2022/09/13 04:22:24;;;;;;;;;;;7.40;99.90;;;;;;5105150;27;19953;-57
2022/09/13 04:25:04;;;;;;;;;;;7.40;99.90;;;;;;5104812;27;19913;-57
2022/09/13 04:27:43;;;;;;;;;;;7.40;99.90;;;;;;5098633;27;20377;-56
2022/09/13 04:30:24;;;;;;;;;;;7.40;99.90;;;;;;5102533;27;19930;-57
2022/09/13 04:33:03;;;;;;;;;;;7.40;99.90;;;;;;5124542;27;19915;-57
2022/09/13 04:35:43;;;;;;;;;;;7.40;99.90;;;;;;5103324;27;19930;-57
2022/09/13 04:38:23;;;;;;;;;;;7.40;99.90;;;;;;5088315;27;19946;-57
2022/09/13 04:41:03;;;;;;;;;;;7.40;99.90;;;;;;5145634;27;19911;-56
2022/09/13 04:43:42;;;;;;;;;;;7.50;99.90;;;;;;5104928;27;20466;-57
2022/09/13 04:46:22;;;;;;;;;;;7.60;99.90;;;;;;5105029;27;19917;-57
2022/09/13 04:49:02;;;;;;;;;;;7.70;99.90;;;;;;5104145;27;19930;-57
2022/09/13 04:51:42;;;;;;;;;;;7.80;99.90;;;;;;5125616;27;19916;-57
2022/09/13 04:54:22;;;;;;;;;;;7.80;99.90;;;;;;5105181;27;19970;-57
2022/09/13 04:57:02;;;;;;;;;;;8.00;99.90;;;;;;5104684;27;20323;-57
2022/09/13 04:59:41;;;;;;;;;;;8.00;99.90;;;;;;5104083;27;19926;-57
2022/09/13 05:02:21;;;;;;;;;;;8.00;99.90;;;;;;5104674;27;19930;-57
2022/09/13 05:05:01;;;;;;;;;;;8.10;99.90;;;;;;5102338;27;19949;-57
2022/09/13 05:07:41;;;;;;;;;;;8.10;99.90;;;;;;5094398;27;19978;-57
2022/09/13 05:10:23;;;;;;;;;;;8.10;99.90;;;;;;5102855;27;19922;-56
2022/09/13 05:13:02;;;;;;;;;;;8.30;99.90;;;;;;5103752;27;19913;-57
2022/09/13 05:15:42;;;;;;;;;;;8.40;99.90;;;;;;5102894;27;19950;-57
2022/09/13 05:18:22;;;;;;;;;;;8.50;99.90;;;;;;5093533;27;20335;-57
2022/09/13 05:21:03;;;;;;;;;;;8.60;99.90;;;;;;5104606;27;20145;-57
2022/09/13 05:23:43;;;;;;;;;;;8.70;99.90;;;;;;5124911;27;19919;-56
2022/09/13 05:26:24;;;;;;;;;;;8.80;99.90;;;;;;5084321;28;20340;-56
2022/09/13 05:29:04;;;;;;;;;;;8.90;99.90;;;;;;5124859;27;19929;-57
2022/09/13 05:31:44;;;;;;;;;;;9.10;99.90;;;;;;5104691;27;19961;-57
2022/09/13 05:34:24;;;;;;;;;;;9.30;99.90;;;;;;5104901;27;19973;-57
2022/09/13 05:37:04;;;;;;;;;;;9.40;99.90;;;;;;5104924;27;20435;-56
2022/09/13 05:39:44;;;;;;;;;;;9.70;99.90;;;;;;5104779;27;19926;-57
2022/09/13 05:42:23;;;;;;;;;;;9.80;99.90;;;;;;5105222;27;19926;-57
2022/09/13 05:45:05;;;;;;;;;;;10.00;99.90;;;;;;5105189;27;19913;-57
2022/09/13 05:47:45;;;;;;;;;;;10.10;99.90;;;;;;5114793;27;19912;-56
2022/09/13 05:50:25;;;;;;;;;;;10.30;99.90;;;;;;5083970;28;20127;-57
2022/09/13 05:53:04;;;;;;;;;;;10.40;99.90;;;;;;5084589;28;19913;-56
2022/09/13 05:55:44;;;;;;;;;;;10.50;99.90;;;;;;5084416;28;19912;-57
2022/09/13 05:58:25;;;;;;;;;;;10.70;99.90;;;;;;5104976;27;20319;-57
2022/09/13 06:01:06;;;;;;;;;;;10.90;99.90;;;;;;5104516;27;19927;-57
2022/09/13 06:03:46;;;;;;;;;;;11.00;99.90;;;;;;5105010;27;19920;-56
2022/09/13 06:06:27;;;;;;;;;;;11.10;99.90;;;;;;5125092;27;19915;-56
2022/09/13 06:09:08;;;;;;;;;;;11.10;99.90;;;;;;5125357;27;20184;-56
2022/09/13 06:11:48;;;;;;;;;;;11.10;99.90;;;;;;5125559;27;20508;-57
2022/09/13 06:14:28;;;;;;;;;;;11.10;99.90;;;;;;5105398;27;19926;-56
2022/09/13 06:17:08;;;;;;;;;;;11.20;99.90;;;;;;5104253;27;19916;-56
2022/09/13 06:19:47;;;;;;;;;;;11.30;99.90;;;;;;5083878;28;19917;-57
2022/09/13 06:22:32;;;;;;;;;;;11.40;99.90;;;;;;5084205;28;19970;-57
2022/09/13 06:25:12;;;;;;;;;;;11.60;99.90;;;;;;5124809;27;19920;-57
2022/09/13 06:27:52;;;;;;;;;;;11.80;99.90;;;;;;5125578;27;19912;-56
2022/09/13 06:30:32;;;;;;;;;;;11.90;99.90;;;;;;5058660;27;19943;-56
2022/09/13 06:33:11;;;;;;;;;;;12.00;99.90;;;;;;5089676;27;19930;-56
2022/09/13 06:35:51;;;;;;;;;;;12.10;99.90;;;;;;5103779;27;19920;-56
2022/09/13 06:38:31;;;;;;;;;;;12.40;99.90;;;;;;5107350;27;19918;-57
2022/09/13 06:41:12;;;;;;;;;;;12.60;99.90;;;;;;5111371;27;19920;-56
2022/09/13 06:43:54;;;;;;;;;;;12.70;99.90;;;;;;5090370;27;19954;-56
2022/09/13 06:46:35;;;;;;;;;;;12.90;99.90;;;;;;5098591;27;19935;-56
2022/09/13 06:49:15;;;;;;;;;;;13.00;99.90;;;;;;5077423;28;19916;-56
2022/09/13 06:51:55;;;;;;;;;;;13.00;99.90;;;;;;5124371;27;19912;-56
2022/09/13 06:54:35;;;;;;;;;;;13.10;99.90;;;;;;5105335;27;19919;-56
2022/09/13 06:57:15;;;;;;;;;;;13.30;99.90;;;;;;5098242;27;19913;-55
2022/09/13 06:59:54;;;;;;;;;;;13.50;99.90;;;;;;5104215;27;19942;-56
2022/09/13 07:02:34;;;;;;;;;;;13.80;99.90;;;;;;5084661;28;19912;-56
2022/09/13 07:05:16;;;;;;;;;;;13.90;99.90;;;;;;5105055;27;20373;-56
2022/09/13 07:07:57;;;;;;;;;;;14.10;99.90;;;;;;5125284;27;20512;-56
2022/09/13 07:10:37;;;;;;;;;;;14.30;99.90;;;;;;5091080;27;20434;-56
2022/09/13 07:13:17;;;;;;;;;;;14.40;99.90;;;;;;5079002;28;19917;-56
2022/09/13 07:16:00;;;;;;;;;;;14.50;99.90;;;;;;5084383;28;20271;-55
2022/09/13 07:18:40;;;;;;;;;;;14.70;99.90;;;;;;5085588;27;19912;-56
2022/09/13 07:21:21;;;;;;;;;;;14.50;99.90;;;;;;5104997;27;19950;-56
2022/09/13 07:24:01;;;;;;;;;;;14.30;99.90;;;;;;5085535;27;19935;-56
2022/09/13 07:26:41;;;;;;;;;;;14.50;99.90;;;;;;5104932;27;19958;-56
2022/09/13 07:29:22;;;;;;;;;;;14.70;99.90;;;;;;5084349;28;20077;-56
2022/09/13 07:32:02;;;;;;;;;;;14.90;99.90;;;;;;5125593;27;19916;-56
2022/09/13 07:34:42;;;;;;;;;;;15.00;99.90;;;;;;5084387;28;19916;-56
2022/09/13 07:37:22;;;;;;;;;;;15.20;99.90;;;;;;5084274;28;19917;-56
2022/09/13 07:40:02;;;;;;;;;;;15.30;99.90;;;;;;5104904;27;19945;-56
2022/09/13 07:42:41;;;;;;;;;;;15.40;99.90;;;;;;5125310;27;20320;-56
2022/09/13 07:45:22;;;;;;;;;;;15.50;99.90;;;;;;5125256;27;20564;-56
2022/09/13 07:48:03;;;;;;;;;;;15.70;99.90;;;;;;5104981;27;19916;-54
2022/09/13 07:50:42;;;;;;;;;;;15.90;99.90;;;;;;5084060;28;19917;-56
2022/09/13 07:53:22;;;;;;;;;;;16.00;99.90;;;;;;5105108;27;20315;-56
2022/09/13 07:56:04;;;;;;;;;;;16.10;99.90;;;;;;5104993;27;19926;-56
2022/09/13 07:58:44;;;;;;;;;;;16.30;99.90;;;;;;5102526;27;19946;-55
2022/09/13 08:01:26;;;;;;;;;;;16.50;99.90;;;;;;5105054;27;19926;-56
2022/09/13 08:04:07;;;;;;;;;;;16.70;99.90;;;;;;5104744;27;20331;-56
2022/09/13 08:06:48;;;;;;;;;;;16.80;99.90;;;;;;5102069;27;19912;-56
2022/09/13 08:09:29;;;;;;;;;;;16.70;99.90;;;;;;5103946;27;20426;-55
2022/09/13 08:12:09;;;;;;;;;;;16.90;99.90;;;;;;5104743;27;19926;-56
2022/09/13 08:14:49;;;;;;;;;;;17.20;99.90;;;;;;5084376;28;19912;-55
2022/09/13 08:17:29;;;;;;;;;;;17.50;99.90;;;;;;5116713;27;19912;-57
2022/09/13 08:20:09;;;;;;;;;;;17.70;99.90;;;;;;5107203;27;19945;-56
2022/09/13 08:22:48;;;;;;;;;;;17.90;99.90;;;;;;5104542;27;20323;-56
2022/09/13 08:25:30;;;;;;;;;;;18.00;99.90;;;;;;5104998;27;19926;-56
2022/09/13 08:28:10;;;;;;;;;;;18.30;99.90;;;;;;5112137;27;19918;-56
2022/09/13 08:30:51;;;;;;;;;;;18.60;99.90;;;;;;5125106;27;19912;-56
2022/09/13 08:33:31;;;;;;;;;;;18.90;99.90;;;;;;5104844;27;19926;-56
2022/09/13 08:36:11;;;;;;;;;;;19.10;99.90;;;;;;5105043;27;19912;-56
2022/09/13 08:38:52;;;;;;;;;;;19.20;99.90;;;;;;5103852;27;19953;-56
2022/09/13 08:41:45;;;;;;;;;;;19.40;99.90;;;;;;5104761;27;19926;-56
2022/09/13 08:44:28;;;;;;;;;;;19.50;99.90;;;;;;5104950;27;19926;-56
2022/09/13 08:47:19;;;;;;;;;;;19.70;99.90;;;;;;5099510;27;19927;-56
2022/09/13 08:50:01;;;;;;;;;;;19.80;99.90;;;;;;5127040;27;20004;-56
2022/09/13 08:52:45;;;;;;;;;;;19.80;99.90;;;;;;5105062;27;19926;-56
2022/09/13 08:55:28;;;;;;;;;;;19.60;99.90;;;;;;5084473;28;19912;-56
2022/09/13 08:58:17;;;;;;;;;;;19.50;99.90;;;;;;5090743;27;19927;-56
2022/09/13 09:01:02;;;;;;;;;;;19.30;99.90;;;;;;5104475;27;19950;-56
2022/09/13 09:03:46;;;;;;;;;;;19.30;99.90;;;;;;5105014;27;20335;-56
2022/09/13 09:06:27;;;;;;;;;;;19.30;99.90;;;;;;5104699;27;19927;-56
2022/09/13 09:09:10;;;;;;;;;;;19.20;99.90;;;;;;5103866;27;19961;-57
2022/09/13 09:11:54;;;;;;;;;;;19.20;99.90;;;;;;5084711;28;19912;-56
2022/09/13 09:14:36;;;;;;;;;;;19.20;99.90;;;;;;5125489;27;19911;-56
2022/09/13 09:17:17;;;;;;;;;;;19.30;99.90;;;;;;5125104;27;19926;-56
2022/09/13 09:20:00;;;;;;;;;;;19.40;99.90;;;;;;5104338;27;19912;-57
2022/09/13 09:22:41;;;;;;;;;;;19.70;99.90;;;;;;5084440;28;19912;-56
2022/09/13 09:25:22;;;;;;;;;;;20.10;99.90;;;;;;5104799;27;19926;-56
2022/09/13 09:28:09;;;;;;;;;;;20.60;99.90;;;;;;5104427;27;19961;-56
2022/09/13 09:30:56;;;;;;;;;;;21.00;99.90;;;;;;5124894;27;19922;-56
2022/09/13 09:33:43;;;;;;;;;;;21.50;99.90;;;;;;5125140;27;19912;-56
2022/09/13 09:36:28;;;;;;;;;;;21.90;99.90;;;;;;5105023;27;19926;-56
2022/09/13 09:39:10;;;;;;;;;;;22.40;99.90;;;;;;5104417;27;19946;-56
2022/09/13 09:41:51;;;;;;;;;;;22.80;99.90;;;;;;5105372;27;19926;-57
2022/09/13 09:44:32;;;;;;;;;;;23.00;99.90;;;;;;5104970;27;19946;-57
2022/09/13 09:47:14;;;;;;;;;;;23.20;99.90;;;;;;5104863;27;19926;-56
2022/09/13 09:50:11;;;;;;;;;;;23.30;99.90;;;;;;5120712;27;19926;-56
2022/09/13 09:52:56;;;;;;;;;;;23.30;99.90;;;;;;5105551;27;19912;-56
2022/09/13 09:55:44;;;;;;;;;;;23.30;99.90;;;;;;5125635;27;19915;-56
2022/09/13 09:58:38;;;;;;;;;;;23.50;99.90;;;;;;5088637;27;20351;-56
2022/09/13 10:01:20;;;;;;;;;;;23.60;99.90;;;;;;5105353;27;20350;-56
2022/09/13 10:04:07;;;;;;;;;;;23.80;99.90;;;;;;5105288;27;20389;-57
2022/09/13 10:06:47;;;;;;;;;;;24.20;99.90;;;;;;5102835;27;19912;-56
2022/09/13 10:09:27;;;;;;;;;;;24.30;99.90;;;;;;5104199;27;20315;-56
2022/09/13 10:12:07;;;;;;;;;;;23.90;99.90;;;;;;5105156;27;19926;-56
2022/09/13 10:14:48;;;;;;;;;;;23.50;99.90;;;;;;5104850;27;19942;-57
2022/09/13 10:17:28;;;;;;;;;;;22.90;99.90;;;;;;5105002;27;19981;-56
2022/09/13 10:20:21;;;;;;;;;;;22.40;99.90;;;;;;5084255;28;19913;-56
2022/09/13 10:23:21;;;;;;;;;;;22.20;99.90;;;;;;5125728;27;19931;-56
2022/09/13 10:26:06;;;;;;;;;;;22.20;99.90;;;;;;5104739;27;19912;-56
2022/09/13 10:28:51;;;;;;;;;;;22.80;99.90;;;;;;5103900;27;20405;-57
2022/09/13 10:31:34;;;;;;;;;;;23.20;99.90;;;;;;5125883;27;19918;-56
2022/09/13 10:34:19;;;;;;;;;;;23.60;99.90;;;;;;5125711;27;19916;-57
2022/09/13 10:37:00;;;;;;;;;;;24.00;99.90;;;;;;5105143;27;19926;-56
2022/09/13 10:39:50;;;;;;;;;;;24.60;99.90;;;;;;5104212;27;19926;-56
2022/09/13 10:42:31;;;;;;;;;;;24.90;99.90;;;;;;5105148;27;19916;-57
2022/09/13 10:45:20;;;;;;;;;;;25.10;99.90;;;;;;5104727;27;19926;-56
2022/09/13 10:48:05;;;;;;;;;;;25.30;99.90;;;;;;5104734;27;19926;-56
2022/09/13 10:51:00;;;;;;;;;;;25.30;97.50;;;;;;5104045;27;19973;-56
2022/09/13 10:53:40;;;;;;;;;;;25.10;98.40;;;;;;5105115;27;19913;-56
2022/09/13 10:56:23;;;;;;;;;;;24.80;99.10;;;;;;5084932;28;20358;-56
2022/09/13 10:59:16;;;;;;;;;;;24.80;99.00;;;;;;5124308;27;19911;-56
2022/09/13 11:02:05;;;;;;;;;;;24.80;98.10;;;;;;5105279;27;19950;-56
2022/09/13 11:04:52;;;;;;;;;;;25.10;98.80;;;;;;5104978;27;20142;-56
2022/09/13 11:07:50;;;;;;;;;;;25.30;96.60;;;;;;5104979;27;19926;-57
2022/09/13 11:10:35;;;;;;;;;;;25.20;97.50;;;;;;5104184;27;19927;-56
2022/09/13 11:13:21;;;;;;;;;;;25.20;97.90;;;;;;5104936;27;19916;-57
2022/09/13 11:16:11;;;;;;;;;;;25.40;97.50;;;;;;5104893;27;19961;-57
2022/09/13 11:19:03;;;;;;;;;;;25.60;96.30;;;;;;5103918;27;19938;-57
2022/09/13 11:21:48;;;;;;;;;;;25.50;98.10;;;;;;5104692;27;19926;-57
2022/09/13 11:24:39;;;;;;;;;;;25.50;96.70;;;;;;5105095;27;19926;-57
2022/09/13 11:27:23;;;;;;;;;;;25.50;97.30;;;;;;5104946;27;19930;-56
2022/09/13 11:30:11;;;;;;;;;;;25.60;97.00;;;;;;5084227;28;19912;-56
2022/09/13 11:32:59;;;;;;;;;;;25.80;95.60;;;;;;5146457;27;19919;-56
2022/09/13 11:35:46;;;;;;;;;;;25.80;96.80;;;;;;5104750;27;19954;-56
2022/09/13 11:38:35;;;;;;;;;;;25.50;95.70;;;;;;5104325;27;19949;-56
2022/09/13 11:41:19;;;;;;;;;;;25.00;97.20;;;;;;5084627;28;19912;-56
2022/09/13 11:44:08;;;;;;;;;;;24.30;99.90;;;;;;5105150;27;19930;-55
2022/09/13 11:46:51;;;;;;;;;;;23.70;99.90;;;;;;5103532;27;19954;-56
2022/09/13 11:49:52;;;;;;;;;;;23.30;99.90;;;;;;5106476;27;19911;-56
2022/09/13 11:52:38;;;;;;;;;;;23.40;99.90;;;;;;5105081;27;19927;-57
2022/09/13 11:55:20;;;;;;;;;;;23.70;99.90;;;;;;5121495;27;19919;-57
2022/09/13 11:58:03;;;;;;;;;;;24.20;99.90;;;;;;5087978;27;20373;-56
2022/09/13 12:00:45;;;;;;;;;;;24.80;99.90;;;;;;5102739;27;19950;-57
2022/09/13 12:03:28;;;;;;;;;;;25.20;99.90;;;;;;5103772;27;19954;-57
2022/09/13 12:06:12;;;;;;;;;;;25.40;99.90;;;;;;5104181;27;19920;-56
2022/09/13 12:08:55;;;;;;;;;;;25.60;98.10;;;;;;5096116;27;19926;-56
2022/09/13 12:11:36;;;;;;;;;;;25.40;96.80;;;;;;5104689;27;19928;-56
2022/09/13 12:14:18;;;;;;;;;;;25.20;98.90;;;;;;5104822;27;20440;-57
2022/09/13 12:16:59;;;;;;;;;;;25.30;99.90;;;;;;5103887;27;19946;-56
2022/09/13 12:19:42;;;;;;;;;;;25.40;98.30;;;;;;5112083;27;19934;-56
2022/09/13 12:22:23;;;;;;;;;;;25.30;99.90;;;;;;5091039;27;19931;-57
2022/09/13 12:25:06;;;;;;;;;;;25.20;98.70;;;;;;5100082;27;19949;-57
2022/09/13 12:27:48;;;;;;;;;;;25.20;98.20;;;;;;5069058;27;20208;-56
2022/09/13 12:30:33;;;;;;;;;;;25.50;97.90;;;;;;5117941;27;19912;-56
2022/09/13 12:33:15;;;;;;;;;;;25.50;99.00;;;;;;5099279;27;19930;-57
2022/09/13 12:36:05;;;;;;;;;;;25.40;98.00;;;;;;5125380;27;19916;-57
2022/09/13 12:38:58;;;;;;;;;;;25.40;96.50;;;;;;5095855;27;20032;-56
2022/09/13 12:41:47;;;;;;;;;;;25.20;99.00;;;;;;5093876;27;19934;-57
2022/09/13 12:44:33;;;;;;;;;;;25.10;97.90;;;;;;5092018;27;19931;-56
2022/09/13 12:47:35;;;;;;;;;;;25.10;99.90;;;;;;5098761;27;19954;-56
2022/09/13 12:50:27;;;;;;;;;;;25.30;99.60;;;;;;5104116;27;19930;-56
2022/09/13 12:53:12;;;;;;;;;;;25.40;99.80;;;;;;5125930;27;19911;-56
2022/09/13 12:56:09;;;;;;;;;;;25.60;98.30;;;;;;5115820;27;19926;-56
2022/09/13 12:59:06;;;;;;;;;;;25.60;97.20;;;;;;5083693;27;20431;-57
2022/09/13 13:01:48;;;;;;;;;;;25.50;98.70;;;;;;5126102;27;19934;-56
2022/09/13 13:04:32;;;;;;;;;;;25.40;98.50;;;;;;5105454;27;19927;-56
2022/09/13 13:07:19;;;;;;;;;;;25.40;98.50;;;;;;5119101;27;19912;-56
2022/09/13 13:10:01;;;;;;;;;;;25.20;99.90;;;;;;5104886;27;19927;-56
2022/09/13 13:12:43;;;;;;;;;;;25.30;99.90;;;;;;5071773;28;19913;-56
2022/09/13 13:15:36;;;;;;;;;;;25.30;99.80;;;;;;5084731;28;19912;-57
2022/09/13 13:18:24;;;;;;;;;;;25.30;96.70;;;;;;5089633;27;20356;-57
2022/09/13 13:21:21;;;;;;;;;;;25.40;98.30;;;;;;5106793;27;20331;-57
2022/09/13 13:24:20;;;;;;;;;;;25.70;98.90;;;;;;5126030;27;19912;-56
2022/09/13 13:27:00;;;;;;;;;;;25.90;96.90;;;;;;5099773;27;19946;-55
2022/09/13 13:29:40;;;;;;;;;;;25.90;97.90;;;;;;5104524;27;19953;-57
2022/09/13 13:32:20;;;;;;;;;;;25.70;98.10;;;;;;5104964;27;20376;-56
2022/09/13 13:35:19;;;;;;;;;;;25.50;98.50;;;;;;5105109;27;20389;-56
2022/09/13 13:41:05;;;;;;;;;;;25.10;99.90;;;;;;5107171;27;20223;-56
2022/09/13 13:43:46;;;;;;;;;;;24.80;99.90;;;;;;5083301;28;19935;-56
2022/09/13 13:46:27;;;;;;;;;;;24.30;99.90;;;;;;5104421;27;19954;-57
2022/09/13 13:49:27;;;;;;;;;;;24.00;99.90;;;;;;5103185;27;20420;-56
2022/09/13 13:52:23;;;;;;;;;;;24.10;99.90;;;;;;5107310;27;20320;-56
2022/09/13 13:55:24;;;;;;;;;;;24.20;99.90;;;;;;5125085;27;19916;-56
2022/09/13 13:58:10;;;;;;;;;;;24.20;99.90;;;;;;5115894;27;20095;-56
2022/09/13 14:00:51;;;;;;;;;;;24.50;99.90;;;;;;5109338;27;20311;-56
2022/09/13 14:03:41;;;;;;;;;;;24.90;99.90;;;;;;5125360;27;20531;-55
2022/09/13 14:06:28;;;;;;;;;;;25.10;99.90;;;;;;5105623;27;20316;-57
2022/09/13 14:09:17;;;;;;;;;;;25.10;99.90;;;;;;5124816;27;19915;-57
2022/09/13 14:12:04;;;;;;;;;;;25.10;99.90;;;;;;5099786;27;20430;-57
2022/09/13 14:14:56;;;;;;;;;;;25.20;99.90;;;;;;5104814;27;19930;-56
2022/09/13 14:17:49;;;;;;;;;;;25.30;99.90;;;;;;5094849;27;19965;-57
2022/09/13 14:20:30;;;;;;;;;;;25.20;99.90;;;;;;5103924;27;19930;-56
2022/09/13 14:23:16;;;;;;;;;;;25.30;99.90;;;;;;5105484;27;19953;-57
2022/09/13 14:25:57;;;;;;;;;;;25.40;99.90;;;;;;5105098;27;19926;-57
2022/09/13 14:28:38;;;;;;;;;;;25.10;99.90;;;;;;5151429;22;19942;-52
2022/09/13 14:31:19;;;;;;;;;;;25.00;99.90;;;;;;5104942;27;19926;-53
2022/09/13 14:33:59;;;;;;;;;;;24.90;99.90;;;;;;5105230;27;20048;-54
2022/09/13 14:36:38;;;;;;;;;;;25.00;99.90;;;;;;5104659;27;20719;-53
2022/09/13 14:39:18;;;;;;;;;;;25.10;99.90;;;;;;5092578;27;19921;-54
2022/09/13 14:42:06;;;;;;;;;;;25.30;99.90;;;;;;5104113;27;19912;-54
2022/09/13 14:44:47;;;;;;;;;;;25.40;99.90;;;;;;5105128;27;19953;-54
2022/09/13 14:47:30;;;;;;;;;;;25.40;99.90;;;;;;5104181;27;20438;-55
2022/09/13 14:50:12;;;;;;;;;;;25.10;99.90;;;;;;5108263;27;20441;-53
2022/09/13 14:52:55;;;;;;;;;;;24.70;99.90;;;;;;5125347;27;19915;-56
2022/09/13 14:55:36;;;;;;;;;;;24.20;99.90;;;;;;5105163;27;19913;-53
2022/09/13 14:58:18;;;;;;;;;;;23.70;99.90;;;;;;5101588;27;20428;-53
2022/09/13 15:01:00;;;;;;;;;;;23.40;99.90;;;;;;5104837;27;19912;-55
2022/09/13 15:03:42;;;;;;;;;;;23.20;99.90;;;;;;5084357;28;19912;-53
2022/09/13 15:06:24;;;;;;;;;;;23.10;99.90;;;;;;5105586;27;20426;-54
2022/09/13 15:09:15;;;;;;;;;;;22.90;99.90;;;;;;5094961;27;19946;-53
2022/09/13 15:11:59;;;;;;;;;;;22.80;99.90;;;;;;5100331;27;19926;-53
2022/09/13 15:14:41;;;;;;;;;;;22.70;99.90;;;;;;5104859;27;19945;-56
2022/09/13 15:17:21;;;;;;;;;;;22.60;99.90;;;;;;5104103;27;19912;-54
2022/09/13 15:20:04;;;;;;;;;;;22.60;99.90;;;;;;5087146;27;19927;-53
2022/09/13 15:22:45;;;;;;;;;;;22.50;99.90;;;;;;5084660;28;19920;-54
2022/09/13 15:25:26;;;;;;;;;;;22.40;99.90;;;;;;5105188;27;20327;-54
2022/09/13 15:28:20;;;;;;;;;;;22.20;99.90;;;;;;5101780;27;19926;-54
2022/09/13 15:31:01;;;;;;;;;;;22.40;99.90;;;;;;5104433;27;20442;-53
2022/09/13 15:33:40;;;;;;;;;;;22.60;99.90;;;;;;5084251;28;19917;-53
2022/09/13 15:36:28;;;;;;;;;;;22.90;99.90;;;;;;5105851;27;19926;-53
2022/09/13 15:39:16;;;;;;;;;;;23.20;99.90;;;;;;5114077;27;19922;-55
2022/09/13 15:41:57;;;;;;;;;;;23.60;99.90;;;;;;5104376;27;19926;-52
2022/09/13 15:44:37;;;;;;;;;;;23.70;99.90;;;;;;5104908;27;19926;-53
2022/09/13 15:47:18;;;;;;;;;;;23.70;99.90;;;;;;5104122;27;19926;-53
2022/09/13 15:49:59;;;;;;;;;;;23.40;99.90;;;;;;5102414;27;19966;-55
2022/09/13 15:52:38;;;;;;;;;;;23.30;99.90;;;;;;5104693;27;20422;-56
2022/09/13 15:55:18;;;;;;;;;;;23.30;99.90;;;;;;5104960;27;19930;-53
2022/09/13 15:57:58;;;;;;;;;;;23.30;99.90;;;;;;5125337;27;19916;-52